createdAt,value
2019-06-07T00:02:16.433Z,99.90
2019-06-07T00:05:39.023Z,99.90
2019-06-07T00:09:01.364Z,99.90
2019-06-07T00:12:23.887Z,99.90
2019-06-07T00:15:46.452Z,99.90
2019-06-07T00:19:09.661Z,99.90
2019-06-07T00:22:33.772Z,99.90
2019-06-07T00:25:56.396Z,99.90
2019-06-07T00:29:21.502Z,99.90
2019-06-07T00:32:42.934Z,99.90
2019-06-07T00:36:05.811Z,99.90
2019-06-07T00:39:28.295Z,99.90
2019-06-07T00:42:50.856Z,99.90
2019-06-07T00:46:15.767Z,99.90
2019-06-07T00:49:41.286Z,99.90
2019-06-07T00:53:23.439Z,99.90
2019-06-07T00:56:25.791Z,99.90
2019-06-07T00:59:48.247Z,99.90
2019-06-07T01:03:10.728Z,99.90
2019-06-07T01:06:32.970Z,99.90
2019-06-07T01:09:55.620Z,99.90
2019-06-07T01:13:20.829Z,99.90
2019-06-07T01:16:56.768Z,99.90
2019-06-07T01:20:08.009Z,99.90
2019-06-07T01:26:54.764Z,99.90
2019-06-07T01:30:18.773Z,99.90
2019-06-07T01:33:50.950Z,99.90
2019-06-07T01:37:05.764Z,99.90
2019-06-07T01:40:32.304Z,99.90
2019-06-07T01:43:52.619Z,99.90
2019-06-07T01:47:15.304Z,99.90
2019-06-07T01:50:37.680Z,99.90
2019-06-07T01:54:48.739Z,99.90
2019-06-07T01:57:38.253Z,99.90
2019-06-07T02:00:48.216Z,99.90
2019-06-07T02:04:10.832Z,99.90
2019-06-07T02:07:33.533Z,99.90
2019-06-07T02:10:55.758Z,99.90
2019-06-07T02:14:19.528Z,99.90
2019-06-07T02:17:41.843Z,99.90
2019-06-07T02:21:04.418Z,99.90
2019-06-07T02:24:28.812Z,99.90
2019-06-07T02:27:50.683Z,99.90
2019-06-07T02:31:13.044Z,99.90
2019-06-07T02:34:38.683Z,99.90
2019-06-07T02:37:59.099Z,99.90
2019-06-07T02:41:25.837Z,99.90
2019-06-07T02:44:45.640Z,99.90
2019-06-07T02:48:08.250Z,99.90
2019-06-07T02:51:40.014Z,99.90
2019-06-07T02:54:54.630Z,99.90
2019-06-07T02:58:16.793Z,99.90
2019-06-07T03:01:42.311Z,99.90
2019-06-07T03:05:04.379Z,99.90
2019-06-07T03:08:30.942Z,99.90
2019-06-07T03:11:55.784Z,99.90
2019-06-07T03:15:32.861Z,99.90
2019-06-07T03:19:07.930Z,99.90
2019-06-07T03:22:38.006Z,99.90
2019-06-07T03:25:58.727Z,99.90
2019-06-07T03:29:21.389Z,99.90
2019-06-07T03:32:47.718Z,99.90
2019-06-07T03:36:23.433Z,99.90
2019-06-07T03:39:43.840Z,99.90
2019-06-07T03:43:05.955Z,99.90
2019-06-07T03:46:30.119Z,99.90
2019-06-07T03:49:52.622Z,99.90
2019-06-07T03:53:15.275Z,99.90
2019-06-07T03:56:38.625Z,99.90
2019-06-07T04:00:01.631Z,99.90
2019-06-07T04:03:33.647Z,99.90
2019-06-07T04:06:48.553Z,99.90
2019-06-07T04:10:11.503Z,99.90
2019-06-07T04:13:36.753Z,99.90
2019-06-07T04:16:57.804Z,99.90
2019-06-07T04:20:20.224Z,99.90
2019-06-07T04:23:45.695Z,99.90
2019-06-07T04:27:06.855Z,99.90
2019-06-07T04:30:41.960Z,99.90
2019-06-07T04:34:05.629Z,99.90
2019-06-07T04:37:28.567Z,99.90
2019-06-07T04:40:52.010Z,99.90
2019-06-07T04:44:16.947Z,99.90
2019-06-07T04:47:42.642Z,99.90
2019-06-07T04:51:05.354Z,99.90
2019-06-07T04:54:30.927Z,99.90
2019-06-07T04:57:52.410Z,99.90
2019-06-07T05:01:26.806Z,99.90
2019-06-07T05:04:42.089Z,99.90
2019-06-07T05:08:07.582Z,99.90
2019-06-07T05:11:27.463Z,99.90
2019-06-07T05:14:49.528Z,99.90
2019-06-07T05:18:11.954Z,99.90
2019-06-07T05:21:59.218Z,99.90
2019-06-07T05:24:58.342Z,99.90
2019-06-07T05:28:20.534Z,99.90
2019-06-07T05:31:45.357Z,99.90
2019-06-07T05:35:09.573Z,99.90
2019-06-07T05:38:33.469Z,99.90
2019-06-07T05:41:55.888Z,99.90
2019-06-07T05:45:22.700Z,99.90
2019-06-07T05:48:45.327Z,99.90
2019-06-07T05:52:07.363Z,99.90
2019-06-07T05:55:30.034Z,99.90
2019-06-07T05:58:52.445Z,99.90
2019-06-07T06:02:22.653Z,99.90
2019-06-07T06:05:44.962Z,99.90
2019-06-07T06:09:13.285Z,99.90
2019-06-07T06:12:35.341Z,99.90
2019-06-07T06:16:00.515Z,99.90
2019-06-07T06:19:15.146Z,99.90
2019-06-07T06:22:40.271Z,99.90
2019-06-07T06:26:01.716Z,99.90
2019-06-07T06:29:24.077Z,99.90
2019-06-07T06:32:54.331Z,99.90
2019-06-07T06:36:10.430Z,99.90
2019-06-07T06:39:32.811Z,99.90
2019-06-07T06:42:54.870Z,99.90
2019-06-07T06:46:37.276Z,99.90
2019-06-07T06:49:42.137Z,99.90
2019-06-07T06:53:04.655Z,98.50
2019-06-07T06:56:27.066Z,98.90
2019-06-07T06:59:52.405Z,99.50
2019-06-07T07:03:55.340Z,99.20
2019-06-07T07:06:38.823Z,99.60
2019-06-07T07:10:03.168Z,98.60
2019-06-07T07:13:26.076Z,98.00
2019-06-07T07:16:53.551Z,97.20
2019-06-07T07:20:13.915Z,97.80
2019-06-07T07:23:36.582Z,98.00
2019-06-07T07:26:59.171Z,97.20
2019-06-07T07:30:36.615Z,96.70
2019-06-07T07:37:15.474Z,96.80
2019-06-07T07:44:07.160Z,95.80
2019-06-07T07:47:25.814Z,94.70
2019-06-07T07:50:51.462Z,94.70
2019-06-07T07:54:12.276Z,96.40
2019-06-07T07:57:34.460Z,95.60
2019-06-07T08:01:09.609Z,95.60
2019-06-07T08:04:29.469Z,95.90
2019-06-07T08:07:47.549Z,96.70
2019-06-07T08:11:09.361Z,95.30
2019-06-07T08:14:31.683Z,94.30
2019-06-07T08:17:58.024Z,95.10
2019-06-07T08:21:25.792Z,95.90
2019-06-07T08:24:41.868Z,96.20
2019-06-07T08:28:04.269Z,97.40
2019-06-07T08:31:26.930Z,97.00
2019-06-07T08:34:52.619Z,95.70
2019-06-07T08:38:25.966Z,95.80
2019-06-07T08:41:53.455Z,95.40
2019-06-07T08:45:05.474Z,96.90
2019-06-07T08:48:29.951Z,96.10
2019-06-07T08:51:54.313Z,94.90
2019-06-07T08:55:14.434Z,94.80
2019-06-07T08:58:37.033Z,95.40
2019-06-07T09:02:03.280Z,95.60
2019-06-07T09:05:23.472Z,96.60
2019-06-07T09:08:46.086Z,96.60
2019-06-07T09:12:11.314Z,96.60
2019-06-07T09:15:32.764Z,96.70
2019-06-07T09:18:59.087Z,98.00
2019-06-07T09:22:20.534Z,97.60
2019-06-07T09:25:56.404Z,98.10
2019-06-07T09:29:11.479Z,97.50
2019-06-07T09:32:31.502Z,97.10
2019-06-07T09:35:54.178Z,97.10
2019-06-07T09:39:17.063Z,96.30
2019-06-07T09:42:39.805Z,95.90
2019-06-07T09:46:11.134Z,95.50
2019-06-07T09:49:32.645Z,95.70
2019-06-07T09:52:58.518Z,96.40
2019-06-07T09:56:15.534Z,93.90
2019-06-07T09:59:37.965Z,93.90
2019-06-07T10:03:08.810Z,94.80
2019-06-07T10:06:25.062Z,94.40
2019-06-07T10:13:12.020Z,94.30
2019-06-07T10:16:46.171Z,94.90
2019-06-07T10:20:00.479Z,95.40
2019-06-07T10:23:22.472Z,93.80
2019-06-07T10:26:45.028Z,93.60
2019-06-07T10:30:08.281Z,95.70
2019-06-07T10:33:30.627Z,95.10
2019-06-07T10:36:52.685Z,93.90
2019-06-07T10:40:15.290Z,94.90
2019-06-07T10:43:37.725Z,95.40
2019-06-07T10:47:07.993Z,96.10
2019-06-07T10:50:30.621Z,96.30
2019-06-07T10:53:53.041Z,94.90
2019-06-07T10:57:16.255Z,94.80
2019-06-07T11:00:39.112Z,94.00
2019-06-07T11:04:01.571Z,94.70
2019-06-07T11:07:24.259Z,94.80
2019-06-07T11:10:47.009Z,94.00
2019-06-07T11:14:10.472Z,95.70
2019-06-07T11:17:33.360Z,94.70
2019-06-07T11:20:55.791Z,93.40
2019-06-07T11:24:23.701Z,95.10
2019-06-07T11:27:41.811Z,95.20
2019-06-07T11:31:04.518Z,94.70
2019-06-07T11:34:27.154Z,95.20
2019-06-07T11:37:49.578Z,95.30
2019-06-07T11:41:11.703Z,95.30
2019-06-07T11:44:34.303Z,95.30
2019-06-07T11:47:59.775Z,95.40
2019-06-07T11:51:20.744Z,95.50
2019-06-07T11:54:42.952Z,96.90
2019-06-07T11:58:09.747Z,96.00
2019-06-07T12:01:29.800Z,96.60
2019-06-07T12:04:52.197Z,96.10
2019-06-07T12:08:16.045Z,95.50
2019-06-07T12:11:39.001Z,96.70
2019-06-07T12:15:01.586Z,97.00
2019-06-07T12:18:24.098Z,96.30
2019-06-07T12:21:46.790Z,96.60
2019-06-07T12:25:10.576Z,96.90
2019-06-07T12:28:33.520Z,97.30
2019-06-07T12:31:55.959Z,96.20
2019-06-07T12:35:19.953Z,96.20
2019-06-07T12:38:42.696Z,95.90
2019-06-07T12:42:05.547Z,96.10
2019-06-07T12:45:43.501Z,96.50
2019-06-07T12:48:52.167Z,97.80
2019-06-07T12:52:17.727Z,98.10
2019-06-07T12:55:38.866Z,96.10
2019-06-07T12:59:01.359Z,97.30
2019-06-07T13:02:43.317Z,96.80
2019-06-07T13:06:05.667Z,96.60
2019-06-07T13:09:28.117Z,97.50
2019-06-07T13:12:50.869Z,97.10
2019-06-07T13:16:13.702Z,96.70
2019-06-07T13:19:36.344Z,95.90
2019-06-07T13:22:59.163Z,96.60
2019-06-07T13:26:23.029Z,95.60
2019-06-07T13:29:46.183Z,96.30
2019-06-07T13:33:08.911Z,96.50
2019-06-07T13:36:31.512Z,96.20
2019-06-07T13:39:54.115Z,97.00
2019-06-07T13:43:17.258Z,95.70
2019-06-07T13:46:40.106Z,95.70
2019-06-07T13:50:02.482Z,96.50
2019-06-07T13:53:25.278Z,95.80
2019-06-07T13:57:01.453Z,95.10
2019-06-07T14:00:12.403Z,96.40
2019-06-07T14:03:34.928Z,95.70
2019-06-07T14:06:57.475Z,95.70
2019-06-07T14:10:21.506Z,95.70
2019-06-07T14:13:44.247Z,96.30
2019-06-07T14:17:06.830Z,96.10
2019-06-07T14:20:33.045Z,95.70
2019-06-07T14:23:53.801Z,96.30
2019-06-07T14:27:16.112Z,95.30
2019-06-07T14:30:38.453Z,96.70
2019-06-07T14:34:01.135Z,95.80
2019-06-07T14:37:24.818Z,95.50
2019-06-07T14:40:47.429Z,95.20
2019-06-07T14:44:09.842Z,95.20
2019-06-07T14:47:32.296Z,95.70
2019-06-07T14:50:54.676Z,95.60
2019-06-07T14:54:17.022Z,96.00
2019-06-07T14:57:39.393Z,95.30
2019-06-07T15:01:01.700Z,95.50
2019-06-07T15:04:24.378Z,95.30
2019-06-07T15:07:46.632Z,95.40
2019-06-07T15:11:09.148Z,95.40
2019-06-07T15:14:31.804Z,96.50
2019-06-07T15:17:54.357Z,95.90
2019-06-07T15:21:16.787Z,95.60
2019-06-07T15:24:40.662Z,95.40
2019-06-07T15:28:02.958Z,95.40
2019-06-07T15:31:25.390Z,95.50
2019-06-07T15:34:48.045Z,95.00
2019-06-07T15:38:10.408Z,95.40
2019-06-07T15:41:33.074Z,96.00
2019-06-07T15:44:56.026Z,96.00
2019-06-07T15:48:18.942Z,95.50
2019-06-07T15:51:41.425Z,96.50
2019-06-07T15:55:04.621Z,95.60
2019-06-07T15:58:27.183Z,95.60
2019-06-07T16:01:49.370Z,95.70
2019-06-07T16:05:12.708Z,95.80
2019-06-07T16:08:36.318Z,95.50
2019-06-07T16:11:58.697Z,96.30
2019-06-07T16:15:21.124Z,95.40
2019-06-07T16:18:44.247Z,95.50
2019-06-07T16:22:06.994Z,95.70
2019-06-07T16:25:29.867Z,95.70
2019-06-07T16:28:52.527Z,95.90
2019-06-07T16:32:15.139Z,96.00
2019-06-07T16:35:37.527Z,96.50
2019-06-07T16:38:59.665Z,96.30
2019-06-07T16:42:21.822Z,95.90
2019-06-07T16:45:44.998Z,96.10
2019-06-07T16:49:07.827Z,96.40
2019-06-07T16:52:29.955Z,96.50
2019-06-07T16:55:52.346Z,96.30
2019-06-07T16:59:14.545Z,96.40
2019-06-07T17:02:38.089Z,96.60
2019-06-07T17:06:00.443Z,97.00
2019-06-07T17:09:22.790Z,96.60
2019-06-07T17:12:46.815Z,97.00
2019-06-07T17:16:09.494Z,96.80
2019-06-07T17:19:31.860Z,96.50
2019-06-07T17:22:54.140Z,96.70
2019-06-07T17:26:16.226Z,97.20
2019-06-07T17:29:39.796Z,97.30
2019-06-07T17:33:02.490Z,97.60
2019-06-07T17:36:24.634Z,97.80
2019-06-07T17:39:47.059Z,98.00
2019-06-07T17:43:09.362Z,98.00
2019-06-07T17:46:31.844Z,98.30
2019-06-07T17:49:54.408Z,98.20
2019-06-07T17:53:17.119Z,98.30
2019-06-07T17:56:39.926Z,98.70
2019-06-07T18:00:27.239Z,98.10
2019-06-07T18:03:26.818Z,98.40
2019-06-07T18:06:51.530Z,98.90
2019-06-07T18:10:17.895Z,98.90
2019-06-07T18:13:40.348Z,98.90
2019-06-07T18:17:02.834Z,99.00
2019-06-07T18:20:25.562Z,99.30
2019-06-07T18:23:48.341Z,99.50
2019-06-07T18:27:10.769Z,99.70
2019-06-07T18:30:33.415Z,99.80
2019-06-07T18:33:55.911Z,99.90
2019-06-07T18:37:18.606Z,99.90
2019-06-07T18:40:42.092Z,99.90
2019-06-07T18:44:04.606Z,99.90
2019-06-07T18:47:27.163Z,99.90
2019-06-07T18:50:50.647Z,99.90
2019-06-07T18:54:13.266Z,99.90
2019-06-07T18:57:36.014Z,99.90
2019-06-07T19:00:58.761Z,99.90
2019-06-07T19:04:21.236Z,99.90
2019-06-07T19:07:43.441Z,99.90
2019-06-07T19:11:05.581Z,99.90
2019-06-07T19:14:36.696Z,99.90
2019-06-07T19:17:52.232Z,99.90
2019-06-07T19:21:14.765Z,99.90
2019-06-07T19:24:36.938Z,99.90
2019-06-07T19:28:00.910Z,99.90
2019-06-07T19:31:23.830Z,99.90
2019-06-07T19:34:46.190Z,99.90
2019-06-07T19:38:08.694Z,99.90
2019-06-07T19:41:30.761Z,99.90
2019-06-07T19:44:59.176Z,99.90
2019-06-07T19:48:17.045Z,99.90
2019-06-07T19:51:39.647Z,99.90
2019-06-07T19:55:06.612Z,99.90
2019-06-07T19:58:26.189Z,99.90
2019-06-07T20:01:48.859Z,99.90
2019-06-07T20:05:13.535Z,99.90
2019-06-07T20:08:36.169Z,99.90
2019-06-07T20:11:58.549Z,99.90
2019-06-07T20:15:29.031Z,99.90
2019-06-07T20:18:45.351Z,99.90
2019-06-07T20:22:07.770Z,99.90
2019-06-07T20:25:30.234Z,99.90
2019-06-07T20:28:52.889Z,99.90
2019-06-07T20:32:14.972Z,99.90
2019-06-07T20:35:37.823Z,99.90
2019-06-07T20:39:00.276Z,99.90
2019-06-07T20:42:22.618Z,99.90
2019-06-07T20:45:45.371Z,99.90
2019-06-07T20:49:08.444Z,99.90
2019-06-07T20:52:31.018Z,99.90
2019-06-07T20:55:53.495Z,99.90
2019-06-07T20:59:15.947Z,99.90
2019-06-07T21:02:38.774Z,99.90
2019-06-07T21:06:01.473Z,99.90
2019-06-07T21:09:24.055Z,99.90
2019-06-07T21:12:46.552Z,99.90
2019-06-07T21:16:10.450Z,99.90
2019-06-07T21:19:32.835Z,99.90
2019-06-07T21:22:55.048Z,99.90
2019-06-07T21:26:17.346Z,99.90
2019-06-07T21:29:39.902Z,99.90
2019-06-07T21:33:03.544Z,99.90
2019-06-07T21:36:26.293Z,99.90
2019-06-07T21:39:50.046Z,99.90
2019-06-07T21:43:12.851Z,99.90
2019-06-07T21:46:35.579Z,99.90
2019-06-07T21:49:57.882Z,99.90
2019-06-07T21:53:20.696Z,99.90
2019-06-07T21:56:43.324Z,99.90
2019-06-07T22:00:11.295Z,99.90
2019-06-07T22:03:33.714Z,99.90
2019-06-07T22:06:56.421Z,99.90
2019-06-07T22:10:19.684Z,99.90
2019-06-07T22:13:42.192Z,99.90
2019-06-07T22:17:06.096Z,99.90
2019-06-07T22:20:28.838Z,99.90
2019-06-07T22:23:51.245Z,99.90
2019-06-07T22:27:13.795Z,99.90
2019-06-07T22:30:35.993Z,99.90
2019-06-07T22:33:58.494Z,99.90
2019-06-07T22:37:23.507Z,99.90
2019-06-07T22:40:45.107Z,99.90
2019-06-07T22:44:26.659Z,99.90
2019-06-07T22:47:49.057Z,99.90
2019-06-07T22:51:13.300Z,99.90
2019-06-07T22:54:36.327Z,99.90
2019-06-07T22:57:59.430Z,99.90
2019-06-07T23:01:22.178Z,99.90
2019-06-07T23:04:44.564Z,99.90
2019-06-07T23:08:07.097Z,99.90
2019-06-07T23:11:29.856Z,99.90
2019-06-07T23:14:52.159Z,99.90
2019-06-07T23:18:15.512Z,99.90
2019-06-07T23:21:38.415Z,99.90
2019-06-07T23:25:01.007Z,99.90
2019-06-07T23:28:23.534Z,99.90
2019-06-07T23:31:45.938Z,99.90
2019-06-07T23:35:10.620Z,99.90
2019-06-07T23:38:33.008Z,99.90
2019-06-07T23:41:55.912Z,99.90
2019-06-07T23:45:19.511Z,99.90
2019-06-07T23:48:42.165Z,99.90
2019-06-07T23:52:04.791Z,99.90
2019-06-07T23:55:27.409Z,99.90
2019-06-07T23:58:49.824Z,99.90
